createdAt,value
2019-06-07T00:01:29.871Z,2.57
2019-06-07T00:05:32.768Z,2.80
2019-06-07T00:09:35.657Z,2.30
2019-06-07T00:13:38.583Z,3.87
2019-06-07T00:17:41.526Z,2.37
2019-06-07T00:25:52.259Z,2.17
2019-06-07T00:29:55.488Z,2.23
2019-06-07T00:33:58.364Z,2.13
2019-06-07T00:38:01.314Z,2.53
2019-06-07T00:42:07.036Z,2.37
2019-06-07T00:46:14.093Z,2.60
2019-06-07T00:50:16.381Z,3.20
2019-06-07T00:54:21.554Z,1.97
2019-06-07T00:58:27.630Z,2.13
2019-06-07T01:02:31.395Z,2.40
2019-06-07T01:06:33.603Z,2.23
2019-06-07T01:10:52.890Z,2.07
2019-06-07T01:14:41.275Z,2.17
2019-06-07T01:18:46.856Z,2.03
2019-06-07T01:22:54.954Z,2.63
2019-06-07T01:27:00.849Z,2.70
2019-06-07T01:31:03.767Z,2.00
2019-06-07T01:35:06.923Z,2.27
2019-06-07T01:39:09.805Z,2.27
2019-06-07T01:43:12.647Z,2.27
2019-06-07T01:47:21.181Z,2.27
2019-06-07T01:51:27.897Z,2.33
2019-06-07T01:55:32.782Z,2.30
2019-06-07T01:59:35.527Z,2.30
2019-06-07T02:03:38.425Z,2.47
2019-06-07T02:07:44.093Z,2.20
2019-06-07T02:11:48.129Z,2.70
2019-06-07T02:15:51.009Z,2.50
2019-06-07T02:19:54.008Z,2.30
2019-06-07T02:23:56.851Z,2.70
2019-06-07T02:28:25.976Z,2.27
2019-06-07T02:32:04.446Z,2.03
2019-06-07T02:36:07.360Z,2.33
2019-06-07T02:40:10.922Z,1.80
2019-06-07T02:44:13.879Z,2.30
2019-06-07T02:48:16.892Z,2.50
2019-06-07T02:52:19.757Z,2.43
2019-06-07T02:56:54.174Z,2.87
2019-06-07T03:01:06.903Z,2.80
2019-06-07T03:05:06.709Z,2.60
2019-06-07T03:09:09.606Z,2.40
2019-06-07T03:13:16.639Z,2.53
2019-06-07T03:17:45.586Z,2.20
2019-06-07T03:21:50.905Z,2.70
2019-06-07T03:25:54.254Z,2.43
2019-06-07T03:30:00.021Z,2.40
2019-06-07T03:34:02.865Z,2.40
2019-06-07T03:38:05.752Z,2.60
2019-06-07T03:42:11.450Z,2.40
2019-06-07T03:46:14.319Z,2.80
2019-06-07T03:50:17.319Z,2.57
2019-06-07T03:54:20.559Z,2.47
2019-06-07T03:58:34.714Z,2.40
2019-06-07T04:02:30.219Z,2.80
2019-06-07T04:06:36.153Z,3.00
2019-06-07T04:10:55.918Z,2.87
2019-06-07T04:14:45.551Z,2.90
2019-06-07T04:18:48.475Z,2.70
2019-06-07T04:22:51.372Z,4.10
2019-06-07T04:26:54.262Z,2.77
2019-06-07T04:30:57.177Z,3.30
2019-06-07T04:35:03.735Z,3.30
2019-06-07T04:39:07.691Z,3.13
2019-06-07T04:43:10.888Z,2.90
2019-06-07T04:47:15.544Z,2.90
2019-06-07T04:51:20.414Z,3.50
2019-06-07T04:55:23.474Z,4.20
2019-06-07T05:00:04.309Z,3.30
2019-06-07T05:03:35.012Z,3.13
2019-06-07T05:07:40.871Z,3.47
2019-06-07T05:11:45.070Z,4.10
2019-06-07T05:15:48.152Z,4.07
2019-06-07T05:19:51.028Z,4.77
2019-06-07T05:24:07.630Z,3.90
2019-06-07T05:28:10.596Z,4.60
2019-06-07T05:32:14.241Z,3.77
2019-06-07T05:36:17.095Z,2.73
2019-06-07T05:40:32.938Z,1.87
2019-06-07T05:44:36.520Z,1.90
2019-06-07T05:48:41.681Z,1.70
2019-06-07T05:52:47.398Z,1.40
2019-06-07T05:56:49.146Z,1.60
2019-06-07T06:00:52.059Z,1.70
2019-06-07T06:04:54.952Z,1.70
2019-06-07T06:09:13.432Z,1.70
2019-06-07T06:13:05.489Z,1.73
2019-06-07T06:17:09.390Z,1.30
2019-06-07T06:21:19.133Z,1.90
2019-06-07T06:25:31.590Z,1.70
2019-06-07T06:29:24.935Z,1.53
2019-06-07T06:33:34.391Z,1.53
2019-06-07T06:37:38.037Z,1.73
2019-06-07T06:41:50.632Z,1.30
2019-06-07T06:45:49.687Z,2.27
2019-06-07T06:49:54.127Z,2.60
2019-06-07T06:53:54.851Z,1.43
2019-06-07T06:57:58.089Z,1.83
2019-06-07T07:02:00.970Z,1.50
2019-06-07T07:06:24.764Z,1.50
2019-06-07T07:10:09.831Z,1.27
2019-06-07T07:14:13.090Z,1.70
2019-06-07T07:18:19.089Z,1.40
2019-06-07T07:22:21.991Z,1.60
2019-06-07T07:26:24.926Z,1.57
2019-06-07T07:30:54.878Z,1.33
2019-06-07T07:34:58.094Z,1.20
2019-06-07T07:39:04.131Z,1.27
2019-06-07T07:43:01.273Z,1.60
2019-06-07T07:47:04.274Z,1.27
2019-06-07T07:51:07.158Z,1.47
2019-06-07T07:55:10.105Z,1.40
2019-06-07T07:59:16.004Z,1.50
2019-06-07T08:03:18.920Z,1.30
2019-06-07T08:07:28.287Z,1.40
2019-06-07T08:11:31.274Z,1.43
2019-06-07T08:15:36.911Z,1.80
2019-06-07T08:19:47.611Z,1.40
2019-06-07T08:23:55.370Z,1.40
2019-06-07T08:27:57.081Z,1.30
2019-06-07T08:32:00.953Z,1.40
2019-06-07T08:36:15.087Z,0.90
2019-06-07T08:40:09.554Z,1.60
2019-06-07T08:44:23.368Z,1.23
2019-06-07T08:48:27.782Z,1.40
2019-06-07T08:52:26.693Z,1.17
2019-06-07T08:56:29.638Z,1.60
2019-06-07T09:00:48.237Z,1.63
2019-06-07T09:04:37.401Z,1.10
2019-06-07T09:08:40.290Z,1.33
2019-06-07T09:12:45.228Z,1.60
2019-06-07T09:16:47.917Z,1.43
2019-06-07T09:20:51.221Z,1.33
2019-06-07T09:25:00.230Z,1.33
2019-06-07T09:29:01.360Z,1.10
2019-06-07T09:33:06.926Z,1.87
2019-06-07T09:38:02.761Z,1.07
2019-06-07T09:41:17.346Z,0.90
2019-06-07T09:45:23.347Z,1.50
2019-06-07T09:49:33.470Z,1.20
2019-06-07T09:53:36.762Z,1.03
2019-06-07T09:57:39.691Z,1.40
2019-06-07T10:01:42.595Z,1.00
2019-06-07T10:05:48.494Z,0.90
2019-06-07T10:13:56.487Z,1.37
2019-06-07T10:18:02.790Z,1.00
2019-06-07T10:22:06.076Z,1.33
2019-06-07T10:26:10.399Z,1.20
2019-06-07T10:30:16.111Z,1.73
2019-06-07T10:34:25.140Z,1.33
2019-06-07T10:38:28.147Z,1.03
2019-06-07T10:42:31.021Z,1.33
2019-06-07T10:46:33.911Z,1.10
2019-06-07T10:50:39.643Z,1.30
2019-06-07T10:54:42.519Z,1.00
2019-06-07T10:58:45.413Z,1.00
2019-06-07T11:02:48.320Z,1.20
2019-06-07T11:06:54.244Z,1.10
2019-06-07T11:10:59.244Z,0.90
2019-06-07T11:15:06.668Z,1.40
2019-06-07T11:19:15.739Z,1.20
2019-06-07T11:23:18.570Z,0.90
2019-06-07T11:27:21.615Z,1.37
2019-06-07T11:31:24.545Z,1.17
2019-06-07T11:35:33.521Z,1.17
2019-06-07T11:39:37.719Z,1.00
2019-06-07T11:43:40.645Z,1.03
2019-06-07T11:47:43.539Z,1.20
2019-06-07T11:51:46.419Z,1.27
2019-06-07T11:55:49.326Z,1.40
2019-06-07T11:59:53.323Z,1.10
2019-06-07T12:03:58.880Z,1.10
2019-06-07T12:08:01.885Z,1.10
2019-06-07T12:12:04.873Z,1.17
2019-06-07T12:16:08.982Z,1.27
2019-06-07T12:20:14.524Z,1.00
2019-06-07T12:24:19.311Z,1.10
2019-06-07T12:28:21.850Z,1.00
2019-06-07T12:32:30.913Z,1.20
2019-06-07T12:36:33.822Z,1.20
2019-06-07T12:40:37.224Z,1.33
2019-06-07T12:44:40.152Z,1.27
2019-06-07T12:48:43.066Z,1.17
2019-06-07T12:52:45.939Z,1.20
2019-06-07T12:56:52.494Z,0.97
2019-06-07T13:00:59.489Z,1.00
2019-06-07T13:05:04.546Z,1.13
2019-06-07T13:09:05.937Z,1.50
2019-06-07T13:13:08.850Z,1.30
2019-06-07T13:17:11.787Z,1.40
2019-06-07T13:21:16.053Z,0.90
2019-06-07T13:25:25.845Z,1.10
2019-06-07T13:29:30.063Z,1.10
2019-06-07T13:33:38.221Z,1.30
2019-06-07T13:37:37.504Z,1.00
2019-06-07T13:41:43.137Z,0.90
2019-06-07T13:45:45.295Z,1.20
2019-06-07T13:49:48.225Z,1.30
2019-06-07T13:53:51.125Z,1.07
2019-06-07T13:57:54.016Z,1.10
2019-06-07T14:02:03.026Z,1.10
2019-06-07T14:06:05.916Z,1.00
2019-06-07T14:10:12.402Z,0.80
2019-06-07T14:14:15.292Z,1.17
2019-06-07T14:18:22.507Z,1.10
2019-06-07T14:22:26.865Z,1.40
2019-06-07T14:26:29.926Z,1.57
2019-06-07T14:30:32.839Z,1.10
2019-06-07T14:34:36.839Z,1.20
2019-06-07T14:38:39.763Z,1.20
2019-06-07T14:42:42.669Z,1.10
2019-06-07T14:46:45.544Z,1.20
2019-06-07T14:50:48.456Z,1.40
2019-06-07T14:54:51.355Z,1.27
2019-06-07T14:58:54.246Z,1.30
2019-06-07T15:02:57.168Z,1.10
2019-06-07T15:07:00.067Z,1.20
2019-06-07T15:11:12.007Z,1.20
2019-06-07T15:15:15.027Z,1.40
2019-06-07T15:19:23.963Z,1.00
2019-06-07T15:23:27.017Z,1.10
2019-06-07T15:27:31.228Z,1.20
2019-06-07T15:31:34.603Z,1.03
2019-06-07T15:35:39.158Z,1.37
2019-06-07T15:39:42.208Z,1.77
2019-06-07T15:43:45.307Z,1.73
2019-06-07T15:47:48.188Z,1.60
2019-06-07T15:51:51.057Z,2.00
2019-06-07T15:55:54.411Z,1.60
2019-06-07T15:59:58.470Z,2.50
2019-06-07T16:04:01.450Z,2.50
2019-06-07T16:08:07.253Z,2.63
2019-06-07T16:12:10.143Z,1.50
2019-06-07T16:16:16.236Z,1.23
2019-06-07T16:20:25.103Z,1.67
2019-06-07T16:24:28.021Z,1.30
2019-06-07T16:28:30.941Z,1.70
2019-06-07T16:32:34.973Z,1.73
2019-06-07T16:36:38.360Z,1.60
2019-06-07T16:40:42.431Z,1.47
2019-06-07T16:44:48.958Z,1.93
2019-06-07T16:48:51.931Z,1.70
2019-06-07T16:52:54.826Z,2.00
2019-06-07T16:56:57.790Z,1.87
2019-06-07T17:01:00.697Z,1.70
2019-06-07T17:05:10.111Z,1.77
2019-06-07T17:09:13.042Z,3.60
2019-06-07T17:13:33.061Z,3.23
2019-06-07T17:17:26.535Z,2.13
2019-06-07T17:21:29.401Z,2.00
2019-06-07T17:25:32.471Z,1.80
2019-06-07T17:29:35.311Z,2.30
2019-06-07T17:33:41.946Z,2.13
2019-06-07T17:37:46.351Z,6.27
2019-06-07T17:41:59.923Z,1.90
2019-06-07T17:45:54.569Z,1.80
2019-06-07T17:49:57.461Z,2.20
2019-06-07T17:54:00.360Z,4.00
2019-06-07T17:58:03.314Z,2.80
2019-06-07T18:02:14.843Z,1.87
2019-06-07T18:06:14.806Z,2.97
2019-06-07T18:10:32.989Z,2.90
2019-06-07T18:14:39.163Z,5.33
2019-06-07T18:18:42.067Z,2.20
2019-06-07T18:22:45.109Z,3.20
2019-06-07T18:26:48.449Z,2.60
2019-06-07T18:30:51.364Z,3.23
2019-06-07T18:34:55.078Z,2.90
2019-06-07T18:39:00.996Z,7.90
2019-06-07T18:43:03.968Z,2.20
2019-06-07T18:47:06.904Z,1.87
2019-06-07T18:51:09.876Z,1.83
2019-06-07T18:55:16.144Z,1.63
2019-06-07T18:59:19.064Z,1.60
2019-06-07T19:03:22.408Z,4.20
2019-06-07T19:07:25.720Z,1.80
2019-06-07T19:11:28.658Z,1.90
2019-06-07T19:15:33.492Z,1.60
2019-06-07T19:19:36.399Z,2.10
2019-06-07T19:23:39.720Z,1.83
2019-06-07T19:27:42.596Z,2.20
2019-06-07T19:31:45.542Z,2.00
2019-06-07T19:35:48.460Z,1.97
2019-06-07T19:39:51.730Z,2.30
2019-06-07T19:43:54.742Z,2.30
2019-06-07T19:47:58.686Z,2.10
2019-06-07T19:52:01.678Z,2.10
2019-06-07T19:56:04.948Z,2.10
2019-06-07T20:00:14.143Z,1.97
2019-06-07T20:04:12.960Z,1.90
2019-06-07T20:08:15.914Z,1.90
2019-06-07T20:12:19.659Z,1.97
2019-06-07T20:16:22.580Z,1.90
2019-06-07T20:20:30.128Z,1.97
2019-06-07T20:24:33.118Z,2.33
2019-06-07T20:28:39.160Z,2.40
2019-06-07T20:32:42.087Z,2.37
2019-06-07T20:36:47.778Z,2.67
2019-06-07T20:40:50.626Z,2.10
2019-06-07T20:44:53.536Z,2.70
2019-06-07T20:48:56.429Z,2.50
2019-06-07T20:53:01.176Z,2.30
2019-06-07T20:57:04.781Z,2.30
2019-06-07T21:01:08.916Z,2.17
2019-06-07T21:05:12.259Z,2.10
2019-06-07T21:09:18.179Z,2.27
2019-06-07T21:13:21.074Z,2.70
2019-06-07T21:17:23.950Z,2.57
2019-06-07T21:21:26.876Z,2.90
2019-06-07T21:25:29.726Z,3.00
2019-06-07T21:29:32.620Z,3.10
2019-06-07T21:33:35.550Z,3.43
2019-06-07T21:37:38.441Z,3.47
2019-06-07T21:41:41.369Z,4.50
2019-06-07T21:45:44.240Z,5.67
2019-06-07T21:49:50.207Z,6.13
2019-06-07T21:53:56.216Z,6.30
2019-06-07T21:57:59.122Z,6.27
2019-06-07T22:02:05.413Z,6.37
2019-06-07T22:06:09.577Z,7.57
2019-06-07T22:10:12.860Z,8.20
2019-06-07T22:14:18.840Z,7.17
2019-06-07T22:18:21.776Z,5.37
2019-06-07T22:22:30.830Z,5.97
2019-06-07T22:26:33.759Z,6.20
2019-06-07T22:30:36.625Z,6.77
2019-06-07T22:34:39.460Z,6.90
2019-06-07T22:38:45.559Z,7.13
2019-06-07T22:42:48.618Z,11.03
2019-06-07T22:46:51.501Z,7.90
2019-06-07T22:50:54.435Z,8.33
2019-06-07T22:54:57.394Z,8.43
2019-06-07T22:59:00.292Z,8.70
2019-06-07T23:03:04.074Z,9.47
2019-06-07T23:07:06.970Z,9.40
2019-06-07T23:11:11.094Z,9.77
2019-06-07T23:15:15.193Z,8.97
2019-06-07T23:19:18.417Z,7.83
2019-06-07T23:23:21.276Z,7.60
2019-06-07T23:27:24.167Z,8.47
2019-06-07T23:31:27.053Z,7.83
2019-06-07T23:35:29.956Z,7.70
2019-06-07T23:39:37.461Z,8.20
2019-06-07T23:43:40.401Z,6.77
2019-06-07T23:47:43.257Z,6.60
2019-06-07T23:51:46.196Z,5.97
2019-06-07T23:55:49.131Z,6.50
2019-06-07T23:59:52.106Z,6.53
